Binghamton, New York
Current Conditions -  °F | °C
As of 10:53 PM on Wednesday 17 Dec 2014 (Local Time) from KBGM Reporting Station
Light Snow Light Snow  
Wind Chill: -6°   Ceiling: 2500
Heat Index: -1°   Visibility: 6mi
Dew Point: -3°   Wind: 12mph
Humidity: 82%   Direction: 280°W
Pressure: 29.87"   Gusts: NA
Location:  42.1°N, 75.91°W
Report Text: KBGM 180353Z 28010KT 6SM -SN BKN025 OVC029 M01/M03 A2987 RMK AO2 SNB21 SLP129 P0000 T10061033
Loading
Personal Weather Stations






























Interactive Weather Map New forecast layout! Learn more

10-Day Weather Forecast

Advertisements
Track Severe Weather on mobile